sensor_id;sensor_type;location;lat;lon;timestamp;pressure;altitude;pressure_sealevel;temperature
66795;BMP280;53698;52.738;4.752;2022-07-25T00:01:57;101148.88;;;23.41
66795;BMP280;53698;52.738;4.752;2022-07-25T00:04:22;101154.22;;;23.39
66795;BMP280;53698;52.738;4.752;2022-07-25T00:06:48;101143.38;;;23.36
66795;BMP280;53698;52.738;4.752;2022-07-25T00:09:13;101152.47;;;23.36
66795;BMP280;53698;52.738;4.752;2022-07-25T00:11:38;101145.47;;;23.30
66795;BMP280;53698;52.738;4.752;2022-07-25T00:14:04;101144.69;;;23.29
66795;BMP280;53698;52.738;4.752;2022-07-25T00:16:30;101143.19;;;23.29
66795;BMP280;53698;52.738;4.752;2022-07-25T00:18:56;101139.97;;;23.25
66795;BMP280;53698;52.738;4.752;2022-07-25T00:21:22;101131.63;;;23.19
66795;BMP280;53698;52.738;4.752;2022-07-25T00:23:47;101130.19;;;23.13
66795;BMP280;53698;52.738;4.752;2022-07-25T00:26:13;101121.34;;;23.09
66795;BMP280;53698;52.738;4.752;2022-07-25T00:28:38;101124.66;;;23.08
66795;BMP280;53698;52.738;4.752;2022-07-25T00:31:04;101116.59;;;23.04
66795;BMP280;53698;52.738;4.752;2022-07-25T00:33:29;101113.03;;;23.04
66795;BMP280;53698;52.738;4.752;2022-07-25T00:35:54;101106.22;;;23.05
66795;BMP280;53698;52.738;4.752;2022-07-25T00:38:20;101090.25;;;23.05
66795;BMP280;53698;52.738;4.752;2022-07-25T00:40:45;101097.34;;;23.06
66795;BMP280;53698;52.738;4.752;2022-07-25T00:43:11;101095.84;;;23.05
66795;BMP280;53698;52.738;4.752;2022-07-25T00:45:36;101100.84;;;23.07
66795;BMP280;53698;52.738;4.752;2022-07-25T00:48:02;101094.03;;;23.08
66795;BMP280;53698;52.738;4.752;2022-07-25T00:50:27;101090.47;;;23.07
66795;BMP280;53698;52.738;4.752;2022-07-25T00:52:54;101088.25;;;23.06
66795;BMP280;53698;52.738;4.752;2022-07-25T00:55:20;101076.09;;;23.03
66795;BMP280;53698;52.738;4.752;2022-07-25T00:57:45;101074.16;;;22.98
66795;BMP280;53698;52.738;4.752;2022-07-25T01:00:12;101078.94;;;22.98
66795;BMP280;53698;52.738;4.752;2022-07-25T01:02:39;101075.91;;;22.96
66795;BMP280;53698;52.738;4.752;2022-07-25T01:05:05;101062.28;;;22.93
66795;BMP280;53698;52.738;4.752;2022-07-25T01:07:31;101056.00;;;22.92
66795;BMP280;53698;52.738;4.752;2022-07-25T01:09:56;101060.06;;;22.91
66795;BMP280;53698;52.738;4.752;2022-07-25T01:12:23;101056.50;;;22.91
66795;BMP280;53698;52.738;4.752;2022-07-25T01:14:48;101059.03;;;22.89
66795;BMP280;53698;52.738;4.752;2022-07-25T01:17:13;101064.91;;;22.85
66795;BMP280;53698;52.738;4.752;2022-07-25T01:19:39;101073.78;;;22.84
66795;BMP280;53698;52.738;4.752;2022-07-25T01:22:04;101065.72;;;22.80
66795;BMP280;53698;52.738;4.752;2022-07-25T01:24:32;101051.34;;;22.77
66795;BMP280;53698;52.738;4.752;2022-07-25T01:26:58;101051.84;;;22.75
66795;BMP280;53698;52.738;4.752;2022-07-25T01:29:23;101053.88;;;22.75
66795;BMP280;53698;52.738;4.752;2022-07-25T01:31:48;101038.97;;;22.72
66795;BMP280;53698;52.738;4.752;2022-07-25T01:34:14;101040.25;;;22.71
66795;BMP280;53698;52.738;4.752;2022-07-25T01:36:39;101026.88;;;22.70
66795;BMP280;53698;52.738;4.752;2022-07-25T01:39:05;101016.50;;;22.70
66795;BMP280;53698;52.738;4.752;2022-07-25T01:41:30;101018.06;;;22.66
66795;BMP280;53698;52.738;4.752;2022-07-25T01:43:56;101012.97;;;22.70
66795;BMP280;53698;52.738;4.752;2022-07-25T01:46:21;101018.53;;;22.70
66795;BMP280;53698;52.738;4.752;2022-07-25T01:48:46;101012.13;;;22.75
66795;BMP280;53698;52.738;4.752;2022-07-25T01:51:12;101017.72;;;22.75
66795;BMP280;53698;52.738;4.752;2022-07-25T01:53:37;101010.88;;;22.76
66795;BMP280;53698;52.738;4.752;2022-07-25T01:56:05;101006.56;;;22.75
66795;BMP280;53698;52.738;4.752;2022-07-25T01:58:30;101007.13;;;22.73
66795;BMP280;53698;52.738;4.752;2022-07-25T02:00:56;101001.47;;;22.78
66795;BMP280;53698;52.738;4.752;2022-07-25T02:03:21;101004.25;;;22.78
66795;BMP280;53698;52.738;4.752;2022-07-25T02:05:57;101005.03;;;22.79
66795;BMP280;53698;52.738;4.752;2022-07-25T02:08:23;101007.28;;;22.80
66795;BMP280;53698;52.738;4.752;2022-07-25T02:10:49;100996.63;;;22.84
66795;BMP280;53698;52.738;4.752;2022-07-25T02:13:14;100985.03;;;22.80
66795;BMP280;53698;52.738;4.752;2022-07-25T02:15:39;100961.28;;;22.79
66795;BMP280;53698;52.738;4.752;2022-07-25T02:18:05;100961.28;;;22.79
66795;BMP280;53698;52.738;4.752;2022-07-25T02:20:30;100967.59;;;22.80
66795;BMP280;53698;52.738;4.752;2022-07-25T02:22:55;100982.94;;;22.86
66795;BMP280;53698;52.738;4.752;2022-07-25T02:25:21;100977.38;;;22.86
66795;BMP280;53698;52.738;4.752;2022-07-25T02:27:46;100968.56;;;22.82
66795;BMP280;53698;52.738;4.752;2022-07-25T02:30:12;100970.88;;;22.78
66795;BMP280;53698;52.738;4.752;2022-07-25T02:32:38;100979.00;;;22.77
66795;BMP280;53698;52.738;4.752;2022-07-25T02:35:05;100980.81;;;22.74
66795;BMP280;53698;52.738;4.752;2022-07-25T02:37:30;100985.91;;;22.70
66795;BMP280;53698;52.738;4.752;2022-07-25T02:39:55;100981.66;;;22.64
66795;BMP280;53698;52.738;4.752;2022-07-25T02:42:21;100986.53;;;22.58
66795;BMP280;53698;52.738;4.752;2022-07-25T02:44:46;100969.91;;;22.47
66795;BMP280;53698;52.738;4.752;2022-07-25T02:47:11;100975.81;;;22.39
66795;BMP280;53698;52.738;4.752;2022-07-25T02:49:37;100970.06;;;22.31
66795;BMP280;53698;52.738;4.752;2022-07-25T02:52:03;100958.75;;;22.24
66795;BMP280;53698;52.738;4.752;2022-07-25T02:54:28;100946.44;;;22.20
66795;BMP280;53698;52.738;4.752;2022-07-25T02:56:53;100945.75;;;22.09
66795;BMP280;53698;52.738;4.752;2022-07-25T02:59:19;100944.81;;;22.01
66795;BMP280;53698;52.738;4.752;2022-07-25T03:01:44;100952.41;;;21.95
66795;BMP280;53698;52.738;4.752;2022-07-25T03:04:09;100959.75;;;21.92
66795;BMP280;53698;52.738;4.752;2022-07-25T03:06:35;100950.72;;;21.87
66795;BMP280;53698;52.738;4.752;2022-07-25T03:09:00;100952.78;;;21.81
66795;BMP280;53698;52.738;4.752;2022-07-25T03:11:25;100947.47;;;21.77
66795;BMP280;53698;52.738;4.752;2022-07-25T03:13:51;100956.56;;;21.78
66795;BMP280;53698;52.738;4.752;2022-07-25T03:16:16;100954.00;;;21.85
66795;BMP280;53698;52.738;4.752;2022-07-25T03:18:42;100948.38;;;21.96
66795;BMP280;53698;52.738;4.752;2022-07-25T03:21:07;100948.63;;;21.98
66795;BMP280;53698;52.738;4.752;2022-07-25T03:23:32;100951.88;;;22.02
66795;BMP280;53698;52.738;4.752;2022-07-25T03:25:58;100945.50;;;22.07
66795;BMP280;53698;52.738;4.752;2022-07-25T03:28:24;100936.19;;;22.04
66795;BMP280;53698;52.738;4.752;2022-07-25T03:30:49;100941.47;;;22.08
66795;BMP280;53698;52.738;4.752;2022-07-25T03:33:15;100943.97;;;22.11
66795;BMP280;53698;52.738;4.752;2022-07-25T03:35:40;100950.22;;;22.17
66795;BMP280;53698;52.738;4.752;2022-07-25T03:38:05;100951.69;;;22.23
66795;BMP280;53698;52.738;4.752;2022-07-25T03:40:32;100946.38;;;22.25
66795;BMP280;53698;52.738;4.752;2022-07-25T03:42:57;100953.66;;;22.28
66795;BMP280;53698;52.738;4.752;2022-07-25T03:45:22;100944.06;;;22.29
66795;BMP280;53698;52.738;4.752;2022-07-25T03:47:48;100947.88;;;22.26
66795;BMP280;53698;52.738;4.752;2022-07-25T03:50:13;100942.06;;;22.24
66795;BMP280;53698;52.738;4.752;2022-07-25T03:52:38;100941.38;;;22.18
66795;BMP280;53698;52.738;4.752;2022-07-25T03:55:06;100946.47;;;22.14
66795;BMP280;53698;52.738;4.752;2022-07-25T03:57:31;100942.16;;;22.13
66795;BMP280;53698;52.738;4.752;2022-07-25T03:59:57;100934.66;;;22.09
66795;BMP280;53698;52.738;4.752;2022-07-25T04:02:22;100934.41;;;22.07
66795;BMP280;53698;52.738;4.752;2022-07-25T04:04:47;100926.81;;;22.07
66795;BMP280;53698;52.738;4.752;2022-07-25T04:07:13;100928.06;;;22.11
66795;BMP280;53698;52.738;4.752;2022-07-25T04:09:38;100924.00;;;22.12
66795;BMP280;53698;52.738;4.752;2022-07-25T04:12:04;100923.72;;;22.16
66795;BMP280;53698;52.738;4.752;2022-07-25T04:14:29;100925.97;;;22.17
66795;BMP280;53698;52.738;4.752;2022-07-25T04:16:55;100922.69;;;22.19
66795;BMP280;53698;52.738;4.752;2022-07-25T04:19:20;100933.72;;;22.24
66795;BMP280;53698;52.738;4.752;2022-07-25T04:21:45;100929.69;;;22.25
66795;BMP280;53698;52.738;4.752;2022-07-25T04:24:11;100924.13;;;22.25
66795;BMP280;53698;52.738;4.752;2022-07-25T04:26:36;100940.59;;;22.23
66795;BMP280;53698;52.738;4.752;2022-07-25T04:29:01;100929.47;;;22.23
66795;BMP280;53698;52.738;4.752;2022-07-25T04:31:27;100931.41;;;22.28
66795;BMP280;53698;52.738;4.752;2022-07-25T04:33:53;100929.19;;;22.27
66795;BMP280;53698;52.738;4.752;2022-07-25T04:36:18;100933.22;;;22.26
66795;BMP280;53698;52.738;4.752;2022-07-25T04:38:44;100920.09;;;22.26
66795;BMP280;53698;52.738;4.752;2022-07-25T04:41:09;100913.25;;;22.27
66795;BMP280;53698;52.738;4.752;2022-07-25T04:43:35;100910.19;;;22.30
66795;BMP280;53698;52.738;4.752;2022-07-25T04:46:00;100908.59;;;22.35
66795;BMP280;53698;52.738;4.752;2022-07-25T04:48:26;100908.56;;;22.40
66795;BMP280;53698;52.738;4.752;2022-07-25T04:50:51;100915.34;;;22.44
66795;BMP280;53698;52.738;4.752;2022-07-25T04:53:16;100916.78;;;22.51
66795;BMP280;53698;52.738;4.752;2022-07-25T04:55:42;100909.47;;;22.53
66795;BMP280;53698;52.738;4.752;2022-07-25T04:58:07;100910.00;;;22.52
66795;BMP280;53698;52.738;4.752;2022-07-25T05:00:32;100908.44;;;22.56
66795;BMP280;53698;52.738;4.752;2022-07-25T05:02:58;100898.50;;;22.61
66795;BMP280;53698;52.738;4.752;2022-07-25T05:05:24;100898.97;;;22.64
66795;BMP280;53698;52.738;4.752;2022-07-25T05:07:54;100910.81;;;22.70
66795;BMP280;53698;52.738;4.752;2022-07-25T05:10:20;100908.72;;;22.76
66795;BMP280;53698;52.738;4.752;2022-07-25T05:12:45;100907.44;;;22.77
66795;BMP280;53698;52.738;4.752;2022-07-25T05:15:11;100917.97;;;22.84
66795;BMP280;53698;52.738;4.752;2022-07-25T05:17:36;100899.31;;;22.79
66795;BMP280;53698;52.738;4.752;2022-07-25T05:20:02;100880.25;;;22.88
66795;BMP280;53698;52.738;4.752;2022-07-25T05:22:28;100896.34;;;22.95
66795;BMP280;53698;52.738;4.752;2022-07-25T05:24:53;100899.59;;;22.99
66795;BMP280;53698;52.738;4.752;2022-07-25T05:27:18;100894.47;;;23.03
66795;BMP280;53698;52.738;4.752;2022-07-25T05:29:44;100902.97;;;23.10
66795;BMP280;53698;52.738;4.752;2022-07-25T05:32:09;100918.09;;;23.14
66795;BMP280;53698;52.738;4.752;2022-07-25T05:34:35;100912.34;;;23.07
66795;BMP280;53698;52.738;4.752;2022-07-25T05:37:00;100920.72;;;23.07
66795;BMP280;53698;52.738;4.752;2022-07-25T05:39:25;100910.78;;;23.12
66795;BMP280;53698;52.738;4.752;2022-07-25T05:41:51;100902.25;;;23.28
66795;BMP280;53698;52.738;4.752;2022-07-25T05:44:16;100891.56;;;23.49
66795;BMP280;53698;52.738;4.752;2022-07-25T05:46:41;100896.75;;;23.58
66795;BMP280;53698;52.738;4.752;2022-07-25T05:49:07;100909.59;;;23.61
66795;BMP280;53698;52.738;4.752;2022-07-25T05:51:32;100906.91;;;23.56
66795;BMP280;53698;52.738;4.752;2022-07-25T05:53:57;100912.47;;;23.56
66795;BMP280;53698;52.738;4.752;2022-07-25T05:56:23;100922.03;;;23.60
66795;BMP280;53698;52.738;4.752;2022-07-25T05:58:48;100914.28;;;23.53
66795;BMP280;53698;52.738;4.752;2022-07-25T06:01:14;100923.03;;;23.45
66795;BMP280;53698;52.738;4.752;2022-07-25T06:03:40;100910.47;;;23.38
66795;BMP280;53698;52.738;4.752;2022-07-25T06:06:06;100925.72;;;23.32
66795;BMP280;53698;52.738;4.752;2022-07-25T06:08:33;100934.13;;;23.09
66795;BMP280;53698;52.738;4.752;2022-07-25T06:10:59;100941.50;;;23.06
66795;BMP280;53698;52.738;4.752;2022-07-25T06:13:26;100926.88;;;23.00
66795;BMP280;53698;52.738;4.752;2022-07-25T06:15:52;100936.56;;;22.71
66795;BMP280;53698;52.738;4.752;2022-07-25T06:18:17;100927.84;;;22.61
66795;BMP280;53698;52.738;4.752;2022-07-25T06:20:43;100920.53;;;22.59
66795;BMP280;53698;52.738;4.752;2022-07-25T06:23:08;100927.75;;;22.43
66795;BMP280;53698;52.738;4.752;2022-07-25T06:25:34;100922.94;;;22.44
66795;BMP280;53698;52.738;4.752;2022-07-25T06:27:59;100922.47;;;22.40
66795;BMP280;53698;52.738;4.752;2022-07-25T06:30:25;100914.34;;;22.42
66795;BMP280;53698;52.738;4.752;2022-07-25T06:32:50;100943.94;;;22.40
66795;BMP280;53698;52.738;4.752;2022-07-25T06:35:16;100946.72;;;22.40
66795;BMP280;53698;52.738;4.752;2022-07-25T06:37:42;100951.22;;;22.48
66795;BMP280;53698;52.738;4.752;2022-07-25T06:40:08;100945.41;;;22.46
66795;BMP280;53698;52.738;4.752;2022-07-25T06:42:38;100941.81;;;22.51
66795;BMP280;53698;52.738;4.752;2022-07-25T06:45:05;100922.84;;;22.55
66795;BMP280;53698;52.738;4.752;2022-07-25T06:47:30;100906.69;;;22.53
66795;BMP280;53698;52.738;4.752;2022-07-25T06:49:56;100904.38;;;22.57
66795;BMP280;53698;52.738;4.752;2022-07-25T06:52:21;100904.53;;;22.64
66795;BMP280;53698;52.738;4.752;2022-07-25T06:54:46;100918.50;;;22.82
66795;BMP280;53698;52.738;4.752;2022-07-25T06:57:12;100916.03;;;22.97
66795;BMP280;53698;52.738;4.752;2022-07-25T06:59:37;100907.63;;;23.02
66795;BMP280;53698;52.738;4.752;2022-07-25T07:02:03;100910.47;;;22.97
66795;BMP280;53698;52.738;4.752;2022-07-25T07:04:28;100896.22;;;23.06
66795;BMP280;53698;52.738;4.752;2022-07-25T07:06:53;100903.56;;;23.03
66795;BMP280;53698;52.738;4.752;2022-07-25T07:09:19;100907.34;;;23.06
66795;BMP280;53698;52.738;4.752;2022-07-25T07:11:44;100900.09;;;22.97
66795;BMP280;53698;52.738;4.752;2022-07-25T07:14:09;100898.66;;;22.91
66795;BMP280;53698;52.738;4.752;2022-07-25T07:16:35;100909.41;;;23.00
66795;BMP280;53698;52.738;4.752;2022-07-25T07:19:00;100919.53;;;23.03
66795;BMP280;53698;52.738;4.752;2022-07-25T07:21:26;100931.53;;;23.11
66795;BMP280;53698;52.738;4.752;2022-07-25T07:23:51;100936.44;;;23.28
66795;BMP280;53698;52.738;4.752;2022-07-25T07:26:17;100919.88;;;23.35
66795;BMP280;53698;52.738;4.752;2022-07-25T07:28:42;100913.69;;;23.24
66795;BMP280;53698;52.738;4.752;2022-07-25T07:31:07;100905.19;;;23.35
66795;BMP280;53698;52.738;4.752;2022-07-25T07:33:33;100904.97;;;23.33
66795;BMP280;53698;52.738;4.752;2022-07-25T07:36:00;100901.84;;;23.18
66795;BMP280;53698;52.738;4.752;2022-07-25T07:38:26;100907.75;;;23.33
66795;BMP280;53698;52.738;4.752;2022-07-25T07:40:52;100912.03;;;23.34
66795;BMP280;53698;52.738;4.752;2022-07-25T07:43:18;100917.97;;;23.25
66795;BMP280;53698;52.738;4.752;2022-07-25T07:45:43;100919.22;;;23.06
66795;BMP280;53698;52.738;4.752;2022-07-25T07:48:09;100922.59;;;22.99
66795;BMP280;53698;52.738;4.752;2022-07-25T07:50:34;100924.97;;;22.90
66795;BMP280;53698;52.738;4.752;2022-07-25T07:53:00;100917.25;;;23.01
66795;BMP280;53698;52.738;4.752;2022-07-25T07:55:26;100924.09;;;23.24
66795;BMP280;53698;52.738;4.752;2022-07-25T07:58:18;100928.13;;;23.23
66795;BMP280;53698;52.738;4.752;2022-07-25T08:00:48;100920.69;;;23.48
66795;BMP280;53698;52.738;4.752;2022-07-25T08:03:19;100927.06;;;23.62
66795;BMP280;53698;52.738;4.752;2022-07-25T08:05:45;100919.13;;;23.53
66795;BMP280;53698;52.738;4.752;2022-07-25T08:08:13;100909.91;;;23.58
66795;BMP280;53698;52.738;4.752;2022-07-25T08:10:42;100908.28;;;23.49
66795;BMP280;53698;52.738;4.752;2022-07-25T08:13:16;100904.00;;;23.79
66795;BMP280;53698;52.738;4.752;2022-07-25T08:15:43;100917.59;;;24.31
66795;BMP280;53698;52.738;4.752;2022-07-25T08:18:09;100919.50;;;24.54
66795;BMP280;53698;52.738;4.752;2022-07-25T08:20:34;100919.41;;;24.29
66795;BMP280;53698;52.738;4.752;2022-07-25T08:25:25;100916.94;;;24.68
66795;BMP280;53698;52.738;4.752;2022-07-25T08:27:51;100891.31;;;25.40
66795;BMP280;53698;52.738;4.752;2022-07-25T08:30:17;100904.53;;;25.60
66795;BMP280;53698;52.738;4.752;2022-07-25T08:32:50;100916.22;;;25.38
66795;BMP280;53698;52.738;4.752;2022-07-25T08:35:17;100944.63;;;25.04
66795;BMP280;53698;52.738;4.752;2022-07-25T08:37:43;100931.91;;;25.16
66795;BMP280;53698;52.738;4.752;2022-07-25T08:40:10;100923.66;;;25.11
66795;BMP280;53698;52.738;4.752;2022-07-25T08:42:36;100948.56;;;25.09
66795;BMP280;53698;52.738;4.752;2022-07-25T08:45:04;100951.31;;;24.46
66795;BMP280;53698;52.738;4.752;2022-07-25T08:47:30;100987.75;;;24.04
66795;BMP280;53698;52.738;4.752;2022-07-25T08:49:57;100981.44;;;23.86
66795;BMP280;53698;52.738;4.752;2022-07-25T08:52:22;100933.06;;;23.83
66795;BMP280;53698;52.738;4.752;2022-07-25T08:54:49;100922.47;;;24.13
66795;BMP280;53698;52.738;4.752;2022-07-25T08:57:15;100914.50;;;24.34
66795;BMP280;53698;52.738;4.752;2022-07-25T08:59:42;100903.09;;;24.76
66795;BMP280;53698;52.738;4.752;2022-07-25T09:02:12;100899.63;;;24.95
66795;BMP280;53698;52.738;4.752;2022-07-25T09:04:37;100921.06;;;25.38
66795;BMP280;53698;52.738;4.752;2022-07-25T09:07:03;100941.75;;;25.55
66795;BMP280;53698;52.738;4.752;2022-07-25T09:09:31;100937.63;;;25.36
66795;BMP280;53698;52.738;4.752;2022-07-25T09:11:57;100940.50;;;25.31
66795;BMP280;53698;52.738;4.752;2022-07-25T09:14:22;100935.91;;;25.08
66795;BMP280;53698;52.738;4.752;2022-07-25T09:16:48;100957.47;;;24.57
66795;BMP280;53698;52.738;4.752;2022-07-25T09:19:16;100958.66;;;24.61
66795;BMP280;53698;52.738;4.752;2022-07-25T09:21:43;100956.72;;;24.56
66795;BMP280;53698;52.738;4.752;2022-07-25T09:24:13;100951.06;;;24.87
66795;BMP280;53698;52.738;4.752;2022-07-25T09:26:47;100959.53;;;24.94
66795;BMP280;53698;52.738;4.752;2022-07-25T09:29:24;100952.34;;;24.99
66795;BMP280;53698;52.738;4.752;2022-07-25T09:31:51;100958.03;;;24.93
66795;BMP280;53698;52.738;4.752;2022-07-25T09:36:54;100955.22;;;24.81
66795;BMP280;53698;52.738;4.752;2022-07-25T09:39:20;100963.84;;;24.83
66795;BMP280;53698;52.738;4.752;2022-07-25T09:41:45;100954.50;;;24.37
66795;BMP280;53698;52.738;4.752;2022-07-25T09:44:16;100984.53;;;24.31
66795;BMP280;53698;52.738;4.752;2022-07-25T09:46:42;100982.28;;;24.12
66795;BMP280;53698;52.738;4.752;2022-07-25T09:49:07;100987.28;;;24.18
66795;BMP280;53698;52.738;4.752;2022-07-25T09:53:59;100977.84;;;24.21
66795;BMP280;53698;52.738;4.752;2022-07-25T09:56:24;100987.03;;;24.16
66795;BMP280;53698;52.738;4.752;2022-07-25T09:58:49;100986.66;;;24.25
66795;BMP280;53698;52.738;4.752;2022-07-25T10:01:20;100993.81;;;24.21
66795;BMP280;53698;52.738;4.752;2022-07-25T10:04:11;100994.06;;;24.05
66795;BMP280;53698;52.738;4.752;2022-07-25T10:06:45;100989.34;;;24.00
66795;BMP280;53698;52.738;4.752;2022-07-25T10:09:14;100991.66;;;24.14
66795;BMP280;53698;52.738;4.752;2022-07-25T10:11:40;100988.31;;;24.15
66795;BMP280;53698;52.738;4.752;2022-07-25T10:14:25;100992.78;;;24.06
66795;BMP280;53698;52.738;4.752;2022-07-25T10:16:51;101002.22;;;24.03
66795;BMP280;53698;52.738;4.752;2022-07-25T10:19:43;100993.28;;;23.92
66795;BMP280;53698;52.738;4.752;2022-07-25T10:22:09;101007.41;;;23.76
66795;BMP280;53698;52.738;4.752;2022-07-25T10:24:37;100992.31;;;23.89
66795;BMP280;53698;52.738;4.752;2022-07-25T10:27:20;101011.03;;;24.07
66795;BMP280;53698;52.738;4.752;2022-07-25T10:29:49;101002.50;;;24.17
66795;BMP280;53698;52.738;4.752;2022-07-25T10:32:16;101006.06;;;24.31
66795;BMP280;53698;52.738;4.752;2022-07-25T10:34:51;101015.03;;;24.11
66795;BMP280;53698;52.738;4.752;2022-07-25T10:37:17;101016.19;;;24.15
66795;BMP280;53698;52.738;4.752;2022-07-25T10:39:44;101006.72;;;24.06
66795;BMP280;53698;52.738;4.752;2022-07-25T10:42:14;101006.56;;;24.16
66795;BMP280;53698;52.738;4.752;2022-07-25T10:44:46;101021.53;;;24.62
66795;BMP280;53698;52.738;4.752;2022-07-25T10:47:13;101020.06;;;24.74
66795;BMP280;53698;52.738;4.752;2022-07-25T10:49:41;101023.53;;;24.80
66795;BMP280;53698;52.738;4.752;2022-07-25T10:52:12;101024.56;;;24.77
66795;BMP280;53698;52.738;4.752;2022-07-25T10:54:38;101026.97;;;24.55
66795;BMP280;53698;52.738;4.752;2022-07-25T10:57:05;101033.00;;;24.59
66795;BMP280;53698;52.738;4.752;2022-07-25T10:59:38;101032.56;;;24.55
66795;BMP280;53698;52.738;4.752;2022-07-25T11:02:05;101029.38;;;24.64
66795;BMP280;53698;52.738;4.752;2022-07-25T11:04:31;101023.75;;;25.07
66795;BMP280;53698;52.738;4.752;2022-07-25T11:07:06;101028.38;;;25.42
66795;BMP280;53698;52.738;4.752;2022-07-25T11:09:32;101031.69;;;25.66
66795;BMP280;53698;52.738;4.752;2022-07-25T11:11:58;101019.88;;;25.60
66795;BMP280;53698;52.738;4.752;2022-07-25T11:14:36;101041.78;;;25.69
66795;BMP280;53698;52.738;4.752;2022-07-25T11:17:16;101034.75;;;25.30
66795;BMP280;53698;52.738;4.752;2022-07-25T11:19:53;101034.88;;;24.94
66795;BMP280;53698;52.738;4.752;2022-07-25T11:22:19;101051.13;;;24.96
66795;BMP280;53698;52.738;4.752;2022-07-25T11:24:45;101034.03;;;24.99
66795;BMP280;53698;52.738;4.752;2022-07-25T11:27:19;101030.19;;;24.89
66795;BMP280;53698;52.738;4.752;2022-07-25T11:29:45;101038.59;;;25.27
66795;BMP280;53698;52.738;4.752;2022-07-25T11:32:10;101038.69;;;25.60
66795;BMP280;53698;52.738;4.752;2022-07-25T11:35:02;101036.00;;;25.54
66795;BMP280;53698;52.738;4.752;2022-07-25T11:37:32;101038.56;;;25.65
66795;BMP280;53698;52.738;4.752;2022-07-25T11:39:59;101040.41;;;26.08
66795;BMP280;53698;52.738;4.752;2022-07-25T11:42:24;101035.75;;;25.90
66795;BMP280;53698;52.738;4.752;2022-07-25T11:44:52;101048.91;;;26.35
66795;BMP280;53698;52.738;4.752;2022-07-25T11:47:27;101051.63;;;26.40
66795;BMP280;53698;52.738;4.752;2022-07-25T11:50:03;101032.06;;;27.35
66795;BMP280;53698;52.738;4.752;2022-07-25T11:52:34;101039.41;;;27.45
66795;BMP280;53698;52.738;4.752;2022-07-25T11:55:09;101046.72;;;27.21
66795;BMP280;53698;52.738;4.752;2022-07-25T11:57:36;101036.97;;;26.94
66795;BMP280;53698;52.738;4.752;2022-07-25T12:00:08;101043.06;;;26.13
66795;BMP280;53698;52.738;4.752;2022-07-25T12:02:35;101052.78;;;26.45
66795;BMP280;53698;52.738;4.752;2022-07-25T12:05:06;101047.19;;;26.65
66795;BMP280;53698;52.738;4.752;2022-07-25T12:07:45;101056.75;;;26.17
66795;BMP280;53698;52.738;4.752;2022-07-25T12:10:20;101048.38;;;26.37
66795;BMP280;53698;52.738;4.752;2022-07-25T12:12:52;101043.41;;;26.82
66795;BMP280;53698;52.738;4.752;2022-07-25T12:15:27;101065.53;;;26.73
66795;BMP280;53698;52.738;4.752;2022-07-25T12:17:54;101056.59;;;26.02
66795;BMP280;53698;52.738;4.752;2022-07-25T12:20:26;101059.66;;;26.64
66795;BMP280;53698;52.738;4.752;2022-07-25T12:22:55;101046.09;;;27.15
66795;BMP280;53698;52.738;4.752;2022-07-25T12:25:22;101055.28;;;27.42
66795;BMP280;53698;52.738;4.752;2022-07-25T12:27:48;101053.22;;;27.16
66795;BMP280;53698;52.738;4.752;2022-07-25T12:30:14;101072.03;;;27.08
66795;BMP280;53698;52.738;4.752;2022-07-25T12:32:40;101057.47;;;27.09
66795;BMP280;53698;52.738;4.752;2022-07-25T12:35:07;101065.53;;;27.13
66795;BMP280;53698;52.738;4.752;2022-07-25T12:37:33;101067.59;;;27.74
66795;BMP280;53698;52.738;4.752;2022-07-25T12:39:59;101050.81;;;28.38
66795;BMP280;53698;52.738;4.752;2022-07-25T12:42:24;101059.81;;;28.36
66795;BMP280;53698;52.738;4.752;2022-07-25T12:44:51;101064.44;;;27.77
66795;BMP280;53698;52.738;4.752;2022-07-25T12:47:17;101065.97;;;27.24
66795;BMP280;53698;52.738;4.752;2022-07-25T12:49:42;101054.81;;;27.04
66795;BMP280;53698;52.738;4.752;2022-07-25T12:52:07;101071.19;;;26.40
66795;BMP280;53698;52.738;4.752;2022-07-25T12:54:33;101081.41;;;26.05
66795;BMP280;53698;52.738;4.752;2022-07-25T12:56:59;101060.09;;;26.02
66795;BMP280;53698;52.738;4.752;2022-07-25T12:59:24;101063.94;;;25.80
66795;BMP280;53698;52.738;4.752;2022-07-25T13:01:49;101069.22;;;25.83
66795;BMP280;53698;52.738;4.752;2022-07-25T13:04:15;101075.59;;;25.02
66795;BMP280;53698;52.738;4.752;2022-07-25T13:06:40;101067.34;;;24.97
66795;BMP280;53698;52.738;4.752;2022-07-25T13:09:06;101066.75;;;25.80
66795;BMP280;53698;52.738;4.752;2022-07-25T13:11:31;101071.44;;;25.85
66795;BMP280;53698;52.738;4.752;2022-07-25T13:13:57;101062.13;;;26.15
66795;BMP280;53698;52.738;4.752;2022-07-25T13:16:22;101059.50;;;27.36
66795;BMP280;53698;52.738;4.752;2022-07-25T13:18:48;101072.31;;;28.21
66795;BMP280;53698;52.738;4.752;2022-07-25T13:21:13;101062.47;;;27.58
66795;BMP280;53698;52.738;4.752;2022-07-25T13:23:39;101088.63;;;27.33
66795;BMP280;53698;52.738;4.752;2022-07-25T13:26:06;101064.13;;;28.59
66795;BMP280;53698;52.738;4.752;2022-07-25T13:28:32;101073.91;;;29.16
66795;BMP280;53698;52.738;4.752;2022-07-25T13:30:57;101067.19;;;29.12
66795;BMP280;53698;52.738;4.752;2022-07-25T13:33:22;101073.97;;;28.24
66795;BMP280;53698;52.738;4.752;2022-07-25T13:35:48;101075.72;;;28.56
66795;BMP280;53698;52.738;4.752;2022-07-25T13:38:13;101072.59;;;29.17
66795;BMP280;53698;52.738;4.752;2022-07-25T13:40:39;101089.28;;;28.72
66795;BMP280;53698;52.738;4.752;2022-07-25T13:43:08;101082.53;;;28.82
66795;BMP280;53698;52.738;4.752;2022-07-25T13:45:34;101086.28;;;28.77
66795;BMP280;53698;52.738;4.752;2022-07-25T13:47:59;101080.47;;;29.33
66795;BMP280;53698;52.738;4.752;2022-07-25T13:50:25;101071.88;;;29.92
66795;BMP280;53698;52.738;4.752;2022-07-25T13:52:50;101080.19;;;30.21
66795;BMP280;53698;52.738;4.752;2022-07-25T13:55:16;101075.09;;;30.27
66795;BMP280;53698;52.738;4.752;2022-07-25T13:57:43;101085.09;;;29.60
66795;BMP280;53698;52.738;4.752;2022-07-25T14:00:09;101084.97;;;28.93
66795;BMP280;53698;52.738;4.752;2022-07-25T14:02:35;101080.47;;;29.19